»·PEaware :: N442WF KSMX-KOXR

N442WF :: KSMX-KOXR

FLIGHT INFORMATION

Flight Status: Arrived
Operator: Privately registered:
United States
More flights under this callsign
Pilot: Brandon F (14792)
Aircraft: BEECH AIRCRAFT BEECH AIRLINER
(B190)
More flights by this aircraft type
Origin: KSMX Santa Maria Pub/Capt Hancock
United States
Destination: KOXR Oxnard
United States
More flights between these airports :: More routes between these airports
Route: RZS VTU KOXR
File this flight plan on PilotEdge
Remarks: SBAN70
Altitude:
(Current/Filed)
7,000ft
Speed:
(Current/Filed)
180kts
Departed: 17-Jun-17 12:52 PM
Arrived: 17-Jun-17 01:41 PM
Distance/Time
Traveled:
75nm/0:49
Distance/Time
To Go:
Arrived

Flight Plot

Page will automatically refresh every two minutes.

Flight plan parsing failed; only flown route is shown


Map Options




Map Legend


Flown Route
Filed Route
Departure Airport
Arrival Airport
Navaid (VOR, NDB)
Fix

Horizontal Profiles

Position Reports

Time Latitude Longitude Heading Altitude Ground
Speed
17-Jun-17 12:40 34.894380 -120.443027 315 266ft 0kts
17-Jun-17 12:41 34.894380 -120.443027 315 266ft 0kts
17-Jun-17 12:42 34.894380 -120.443027 315 266ft 0kts
17-Jun-17 12:43 34.894380 -120.443027 315 266ft 0kts
17-Jun-17 12:44 34.894380 -120.443027 315 266ft 0kts
17-Jun-17 12:45 34.894380 -120.443027 315 266ft 0kts
17-Jun-17 12:46 34.894380 -120.443027 315 266ft 0kts
17-Jun-17 12:47 34.894380 -120.443027 315 266ft 0kts
17-Jun-17 12:48 34.894380 -120.443027 315 266ft 0kts
17-Jun-17 12:49 34.894380 -120.443027 315 266ft 0kts
17-Jun-17 12:50 34.894380 -120.443027 315 266ft 0kts
17-Jun-17 12:51 34.894380 -120.443027 315 266ft 0kts
17-Jun-17 12:52 34.894377 -120.443339 242 266ft 5kts
17-Jun-17 12:53 34.893644 -120.445259 181 266ft 6kts
17-Jun-17 12:54 34.893621 -120.445259 181 266ft 0kts
17-Jun-17 12:55 34.895523 -120.449159 314 267ft 87kts
17-Jun-17 12:56 34.927225 -120.473813 16 1225ft 176kts
17-Jun-17 12:57 34.928105 -120.419004 113 2764ft 193kts
17-Jun-17 12:58 34.906224 -120.358866 113 4264ft 195kts
17-Jun-17 12:59 34.873874 -120.307354 129 5751ft 191kts
17-Jun-17 13:00 34.847726 -120.268983 128 6894ft 188kts
17-Jun-17 13:01 34.815257 -120.220982 128 7000ft 228kts
17-Jun-17 13:02 34.773263 -120.159005 128 6988ft 243kts
17-Jun-17 13:03 34.730990 -120.096722 128 6983ft 241kts
17-Jun-17 13:04 34.692066 -120.039463 128 6982ft 241kts
17-Jun-17 13:05 34.652805 -119.981821 128 6984ft 241kts
17-Jun-17 13:06 34.617076 -119.929418 129 6990ft 241kts
17-Jun-17 13:07 34.590498 -119.890498 129 6993ft 241kts
17-Jun-17 13:08 34.563854 -119.851153 129 6998ft 241kts
17-Jun-17 13:09 34.539298 -119.815273 129 7001ft 233kts
17-Jun-17 13:09 34.521854 -119.789774 129 7004ft 230kts
17-Jun-17 13:10 34.499617 -119.753519 122 7008ft 228kts
17-Jun-17 13:11 34.477134 -119.712051 122 7009ft 227kts
17-Jun-17 13:12 34.457189 -119.675003 122 7009ft 227kts
17-Jun-17 13:13 34.444722 -119.651927 122 7009ft 227kts
17-Jun-17 13:14 34.423336 -119.612538 122 7009ft 227kts
17-Jun-17 13:15 34.402048 -119.573425 122 7009ft 227kts
17-Jun-17 13:16 34.377820 -119.528949 123 7008ft 227kts
17-Jun-17 13:17 34.355556 -119.488114 123 7006ft 227kts
17-Jun-17 13:18 34.329601 -119.440654 123 7005ft 236kts
17-Jun-17 13:19 34.307365 -119.400056 122 7002ft 240kts
17-Jun-17 13:20 34.286892 -119.358990 101 6982ft 239kts
17-Jun-17 13:21 34.282620 -119.312755 93 7010ft 239kts
17-Jun-17 13:22 34.278547 -119.258351 93 7008ft 239kts
17-Jun-17 13:23 34.273836 -119.195037 93 7006ft 240kts
17-Jun-17 13:24 34.268422 -119.121293 93 7003ft 240kts
17-Jun-17 13:25 34.263240 -119.050367 93 7000ft 240kts
17-Jun-17 13:26 34.257436 -118.969968 93 7000ft 240kts
17-Jun-17 13:27 34.251846 -118.890401 93 6999ft 239kts
17-Jun-17 13:28 34.246459 -118.810969 93 6999ft 238kts
17-Jun-17 13:29 34.242031 -118.731572 93 6997ft 234kts
17-Jun-17 13:30 34.238784 -118.655006 93 6994ft 231kts
17-Jun-17 13:31 34.201740 -118.630185 217 6404ft 213kts
17-Jun-17 13:32 34.199535 -118.693930 284 5453ft 203kts
17-Jun-17 13:33 34.201322 -118.755089 267 4546ft 196kts
17-Jun-17 13:34 34.199281 -118.808878 265 3713ft 194kts
17-Jun-17 13:35 34.198004 -118.859477 269 3391ft 174kts
17-Jun-17 13:36 34.198816 -118.904992 268 3392ft 162kts
17-Jun-17 13:37 34.199177 -118.949786 269 3393ft 154kts
17-Jun-17 13:38 34.199586 -118.995435 269 3311ft 159kts
17-Jun-17 13:39 34.199990 -119.052936 269 2447ft 179kts
17-Jun-17 13:40 34.200296 -119.112181 268 1488ft 179kts
17-Jun-17 13:41 34.200447 -119.158084 267 694ft 133kts
17-Jun-17 13:42 34.200728 -119.198724 267 100ft 112kts
17-Jun-17 13:43 34.200082 -119.211252 162 47ft 0kts
17-Jun-17 13:44 34.200082 -119.211252 162 47ft 0kts
17-Jun-17 13:45 34.200052 -119.211239 157 47ft 1kts
17-Jun-17 13:46 34.199063 -119.206881 175 47ft 0kts
17-Jun-17 13:47 34.199063 -119.206881 175 47ft 0kts
17-Jun-17 13:48 34.199063 -119.206881 175 47ft 0kts
17-Jun-17 13:49 34.199063 -119.206881 175 47ft 0kts
17-Jun-17 13:50 34.199063 -119.206881 175 47ft 0kts
17-Jun-17 13:51 34.199063 -119.206881 175 47ft 0kts

Navigation Log

Ident Type
Flight plan parsing failed, navigation log unavailable